Terminal Aerodrome Forecast
Issued by NWS

Home | Current Version | Previous Version | Text Only | Print | Product List | Glossary Off
Versions: 1 2 3 4 5 6 7 8 9 10 11 12 13 14 15 16 17 18 19 20 21 22 23 24 25 26 27

527
FTUS43 KBIS 290750 AAA
TAFJMS
TAF AMD
KJMS 290750Z 2908/3006 32012KT P6SM BKN025 BKN050
     FM291200 32018G27KT P6SM SCT015 OVC025
     FM291700 32020G30KT P6SM VCSH SCT025 BKN050
     FM300100 33012KT P6SM SCT045 BKN070
     FM300300 32008KT P6SM SCT040 BKN060=

USA.gov is the U.S. government's official web portal to all federal, state and local government web resources and services.